Time;durP1;ratioP1;P1;durP2;ratioP2;P2;SDS_P1;SDS_P2;PMS_P1;PMS_P2;Temp;Humidity;BMP_temperature;BMP_pressure;BME280_temperature;BME280_humidity;BME280_pressure;Samples;Min_cycle;Max_cycle;Signal;HPM_P1;HPM_P2
2021/06/11 00:00:41;;;;;;;2.70;1.90;;;;;;;29.50;36.87;96942.25;4944747;28;20552;-35
2021/06/11 00:03:06;;;;;;;2.22;1.85;;;;;;;29.50;36.99;96940.47;4982387;28;20057;-35
2021/06/11 00:05:32;;;;;;;2.22;1.90;;;;;;;29.48;36.98;96940.56;4946886;28;20279;-39
2021/06/11 00:07:57;;;;;;;2.33;1.90;;;;;;;29.49;36.75;96938.78;4951103;28;20287;-34
2021/06/11 00:10:23;;;;;;;2.90;2.10;;;;;;;29.50;36.88;96936.97;4946283;28;20068;-38
2021/06/11 00:12:48;;;;;;;2.28;2.08;;;;;;;29.49;36.84;96936.13;4956921;28;20682;-34
2021/06/11 00:15:13;;;;;;;1.90;1.52;;;;;;;29.48;37.01;96931.78;4975525;28;20023;-34
2021/06/11 00:17:39;;;;;;;2.30;1.90;;;;;;;29.50;36.88;96940.47;4954926;28;20478;-40
2021/06/11 00:20:05;;;;;;;2.63;2.20;;;;;;;29.50;36.78;96942.25;4946102;28;20592;-38
2021/06/11 00:22:31;;;;;;;2.20;1.90;;;;;;;29.49;36.92;96936.13;4950203;28;20258;-37
2021/06/11 00:24:56;;;;;;;2.22;1.95;;;;;;;29.51;36.88;96933.38;4950357;28;20493;-33
2021/06/11 00:27:22;;;;;;;1.75;1.65;;;;;;;29.50;36.89;96937.81;4954980;28;20102;-41
2021/06/11 00:29:47;;;;;;;6.30;2.08;;;;;;;29.50;36.87;96931.69;4954293;28;20039;-33
2021/06/11 00:32:15;;;;;;;2.83;1.80;;;;;;;29.49;36.73;96925.56;4948877;28;20034;-34
2021/06/11 00:34:40;;;;;;;2.00;1.70;;;;;;;29.49;37.04;96930.84;4951661;28;20528;-36
2021/06/11 00:37:08;;;;;;;2.58;1.80;;;;;;;29.48;36.99;96919.44;4955383;28;20117;-40
2021/06/11 00:39:37;;;;;;;3.03;1.90;;;;;;;29.48;37.02;96924.72;4939036;28;20050;-31
2021/06/11 00:42:05;;;;;;;2.03;1.88;;;;;;;29.49;36.95;96925.56;4945967;28;20225;-33
2021/06/11 00:44:31;;;;;;;2.47;1.80;;;;;;;29.50;36.97;96926.41;4954214;28;20034;-39
2021/06/11 00:46:56;;;;;;;2.10;1.90;;;;;;;29.49;36.86;96928.22;4957297;28;20393;-38
2021/06/11 00:49:22;;;;;;;1.67;1.58;;;;;;;29.49;37.04;96925.56;4973965;28;20035;-36
2021/06/11 00:51:47;;;;;;;2.15;1.95;;;;;;;29.48;37.02;96927.34;4954245;28;20041;-38
2021/06/11 00:54:13;;;;;;;2.33;1.70;;;;;;;29.50;37.00;96926.41;4947791;28;21056;-32
2021/06/11 00:56:38;;;;;;;1.83;1.65;;;;;;;29.49;36.77;96925.56;4943507;28;20044;-38
2021/06/11 00:59:04;;;;;;;2.35;1.60;;;;;;;29.49;36.92;96928.22;4952399;28;20119;-36
2021/06/11 01:01:29;;;;;;;2.03;1.83;;;;;;;29.49;36.90;96928.22;4954205;28;20053;-37
2021/06/11 01:03:55;;;;;;;1.70;1.60;;;;;;;29.48;36.98;96935.28;4950977;28;20089;-38
2021/06/11 01:06:20;;;;;;;1.50;1.40;;;;;;;29.50;37.05;96936.97;4944131;28;21013;-37
2021/06/11 01:08:46;;;;;;;2.72;1.60;;;;;;;29.48;36.74;96932.63;4947245;28;20046;-33
2021/06/11 01:11:12;;;;;;;1.80;1.65;;;;;;;29.50;36.98;96931.69;4952419;28;20046;-38
2021/06/11 01:13:40;;;;;;;2.50;1.90;;;;;;;29.49;37.02;96936.13;4945209;28;20038;-37
2021/06/11 01:16:05;;;;;;;2.03;1.70;;;;;;;29.48;36.98;96930.00;4952750;28;20035;-34
2021/06/11 01:18:30;;;;;;;1.98;1.80;;;;;;;29.48;36.77;96926.50;4937223;28;20054;-38
2021/06/11 01:20:56;;;;;;;2.05;1.55;;;;;;;29.47;37.23;96933.59;4957341;28;20026;-35
2021/06/11 01:23:41;;;;;;;1.77;1.60;;;;;;;29.48;36.99;96932.63;4956697;28;20643;-39
2021/06/11 01:26:19;;;;;;;1.70;1.60;;;;;;;29.48;36.95;96931.78;4954762;28;20504;-36
2021/06/11 01:28:44;;;;;;;1.85;1.60;;;;;;;29.47;37.12;96925.66;4955784;28;20038;-38
2021/06/11 01:31:10;;;;;;;1.70;1.60;;;;;;;29.48;37.06;96930.00;4940372;28;20035;-34
2021/06/11 01:33:35;;;;;;;2.72;1.70;;;;;;;29.47;36.92;96928.31;4938237;28;20478;-37
2021/06/11 01:36:07;;;;;;;1.58;1.48;;;;;;;29.47;37.19;96927.44;4937046;28;20117;-38
2021/06/11 01:38:36;;;;;;;3.30;1.45;;;;;;;29.47;37.04;96927.44;4952821;28;20075;-31
2021/06/11 01:41:02;;;;;;;2.28;1.90;;;;;;;29.47;36.84;96925.66;4952423;28;20783;-31
2021/06/11 01:43:28;;;;;;;2.63;1.50;;;;;;;29.45;36.98;96919.63;4985287;28;20041;-36
2021/06/11 01:45:53;;;;;;;1.50;1.40;;;;;;;29.47;37.08;96930.94;4955458;28;20053;-37
2021/06/11 01:48:18;;;;;;;2.20;1.52;;;;;;;29.46;37.01;96929.25;4951924;28;20677;-32
2021/06/11 01:50:44;;;;;;;1.60;1.50;;;;;;;29.45;36.75;96924.91;4951826;28;20034;-37
2021/06/11 01:53:10;;;;;;;2.10;1.50;;;;;;;29.46;37.00;96925.75;4946944;28;20125;-37
2021/06/11 01:55:35;;;;;;;2.03;1.60;;;;;;;29.44;36.82;96928.50;4947314;28;20580;-36
2021/06/11 01:58:01;;;;;;;2.70;1.50;;;;;;;29.45;36.97;96930.19;4934476;28;20043;-33
2021/06/11 02:00:27;;;;;;;1.65;1.40;;;;;;;29.44;36.86;96928.50;4950062;28;20046;-37
2021/06/11 02:02:52;;;;;;;1.85;1.70;;;;;;;29.44;36.86;96933.78;4931321;28;20520;-35
2021/06/11 02:05:18;;;;;;;1.58;1.48;;;;;;;29.44;36.77;96931.13;4952910;28;20633;-37
2021/06/11 02:07:44;;;;;;;3.33;1.60;;;;;;;29.43;37.10;96932.09;4948522;28;20037;-39
2021/06/11 02:10:10;;;;;;;2.05;1.80;;;;;;;29.43;36.99;96932.09;4958154;28;20030;-32
2021/06/11 02:12:37;;;;;;;1.60;1.50;;;;;;;29.43;36.95;96924.19;4949849;28;20291;-34
2021/06/11 02:15:03;;;;;;;3.08;1.52;;;;;;;29.44;36.81;96928.50;4977879;28;20034;-38
2021/06/11 02:17:28;;;;;;;1.38;1.27;;;;;;;29.42;36.84;96924.28;4939171;28;20022;-37
2021/06/11 02:19:54;;;;;;;1.92;1.48;;;;;;;29.43;37.09;96918.03;4928640;28;20402;-37
2021/06/11 02:22:19;;;;;;;4.25;1.50;;;;;;;29.43;37.06;96932.09;4958641;28;20104;-35
2021/06/11 02:24:44;;;;;;;1.90;1.67;;;;;;;29.43;37.02;96926.81;4939442;28;20034;-36
2021/06/11 02:27:10;;;;;;;2.30;1.30;;;;;;;29.43;36.85;96932.09;4933206;28;20532;-34
2021/06/11 02:29:35;;;;;;;1.70;1.60;;;;;;;29.43;36.78;96934.72;4976865;28;20130;-37
2021/06/11 02:32:02;;;;;;;2.00;1.60;;;;;;;29.43;36.99;96925.97;4953103;28;20126;-37
2021/06/11 02:34:27;;;;;;;1.80;1.60;;;;;;;29.43;37.19;96926.81;4946302;28;20693;-37
2021/06/11 02:36:52;;;;;;;1.50;1.40;;;;;;;29.43;37.00;96931.25;4936875;28;20026;-36
2021/06/11 02:39:18;;;;;;;1.60;1.27;;;;;;;29.43;36.92;96923.31;4943104;28;20027;-36
2021/06/11 02:41:47;;;;;;;1.48;1.33;;;;;;;29.43;37.12;96926.81;4944919;28;20489;-36
2021/06/11 02:44:12;;;;;;;1.50;1.40;;;;;;;29.41;36.99;96923.41;4963275;28;20042;-33
2021/06/11 02:46:40;;;;;;;1.33;1.23;;;;;;;29.43;37.06;96926.81;4936783;28;20042;-34
2021/06/11 02:49:09;;;;;;;1.30;1.20;;;;;;;29.43;36.92;96921.53;4952753;28;20026;-33
2021/06/11 02:51:40;;;;;;;1.67;1.48;;;;;;;29.42;36.89;96919.84;4937968;28;20175;-38
2021/06/11 02:54:25;;;;;;;1.75;1.40;;;;;;;29.43;37.00;96918.03;4949292;28;20551;-35
2021/06/11 02:56:54;;;;;;;1.33;1.17;;;;;;;29.42;36.89;96919.84;4952587;28;20030;-33
2021/06/11 02:59:26;;;;;;;1.30;1.20;;;;;;;29.43;36.90;96915.41;4964229;28;20057;-37
2021/06/11 03:01:54;;;;;;;1.40;1.30;;;;;;;29.43;36.95;96915.41;4964323;28;20667;-40
2021/06/11 03:04:20;;;;;;;1.50;1.40;;;;;;;29.42;36.79;96914.56;4939872;28;20344;-38
2021/06/11 03:06:45;;;;;;;1.40;1.25;;;;;;;29.43;36.85;96920.69;4953942;28;20042;-37
2021/06/11 03:09:14;;;;;;;1.55;1.45;;;;;;;29.43;37.12;96915.41;4937581;28;20349;-36
2021/06/11 03:11:41;;;;;;;2.25;1.60;;;;;;;29.42;36.87;96919.84;4980859;28;20039;-39
2021/06/11 03:14:06;;;;;;;1.48;1.25;;;;;;;29.42;37.18;96919.00;4939099;28;20570;-39
2021/06/11 03:16:32;;;;;;;1.30;1.20;;;;;;;29.42;37.08;96916.34;4950939;28;20515;-37
2021/06/11 03:19:04;;;;;;;1.50;1.40;;;;;;;29.41;36.97;96926.06;4945142;28;20038;-35
2021/06/11 03:21:43;;;;;;;2.78;1.20;;;;;;;29.42;36.89;96924.28;4943754;28;20848;-40
2021/06/11 03:24:18;;;;;;;1.60;1.30;;;;;;;29.42;36.89;96927.78;4935828;28;20707;-40
2021/06/11 03:27:04;;;;;;;1.17;1.15;;;;;;;29.40;36.88;96927.00;4959765;28;20034;-41
2021/06/11 03:29:34;;;;;;;1.73;1.48;;;;;;;29.41;36.95;96918.13;4949688;28;20122;-39
2021/06/11 03:32:03;;;;;;;1.33;1.25;;;;;;;29.41;37.16;96920.78;4954521;28;20871;-40
2021/06/11 03:34:31;;;;;;;1.88;1.33;;;;;;;29.40;37.08;96916.44;4961360;28;20034;-38
2021/06/11 03:36:56;;;;;;;1.15;1.00;;;;;;;29.41;36.99;96917.31;4959135;28;20042;-39
2021/06/11 03:39:30;;;;;;;1.90;1.20;;;;;;;29.41;36.95;96918.13;4958470;28;20023;-37
2021/06/11 03:41:56;;;;;;;1.30;1.20;;;;;;;29.40;37.19;96921.72;4943407;28;20330;-37
2021/06/11 03:44:23;;;;;;;1.48;1.17;;;;;;;29.40;37.06;96927.00;4955067;28;20471;-39
2021/06/11 03:46:49;;;;;;;1.45;1.35;;;;;;;29.41;36.96;96926.06;4937363;28;20038;-32
2021/06/11 03:49:14;;;;;;;1.17;1.10;;;;;;;29.42;36.93;96924.28;4938442;28;20613;-39
2021/06/11 03:51:41;;;;;;;1.17;1.08;;;;;;;29.40;37.08;96924.38;4954867;28;20035;-37
2021/06/11 03:54:08;;;;;;;1.30;1.20;;;;;;;29.41;36.88;96931.34;4939339;28;20061;-35
2021/06/11 03:56:35;;;;;;;1.10;1.00;;;;;;;29.40;37.16;96927.00;4941107;28;20376;-33
2021/06/11 03:59:00;;;;;;;1.30;1.00;;;;;;;29.41;37.00;96927.88;4980514;28;20093;-35
2021/06/11 04:01:27;;;;;;;1.20;1.10;;;;;;;29.40;36.98;96921.72;4950842;28;20038;-32
2021/06/11 04:03:54;;;;;;;1.15;1.05;;;;;;;29.41;37.04;96927.88;4974867;28;20230;-38
2021/06/11 04:06:31;;;;;;;1.40;1.00;;;;;;;29.40;36.83;96931.47;4956796;28;20030;-40
2021/06/11 04:09:02;;;;;;;1.17;1.08;;;;;;;29.40;37.06;96927.00;4953844;28;20027;-42
2021/06/11 04:11:29;;;;;;;1.48;1.05;;;;;;;29.40;36.88;96920.91;4959081;28;20031;-36
2021/06/11 04:13:58;;;;;;;1.95;1.40;;;;;;;29.39;37.08;96922.69;4959919;28;20027;-39
2021/06/11 04:16:25;;;;;;;2.03;1.38;;;;;;;29.39;36.88;96925.31;4973962;28;20023;-38
2021/06/11 04:18:55;;;;;;;1.17;1.08;;;;;;;29.39;36.99;96919.19;4944254;28;20031;-36
2021/06/11 04:21:23;;;;;;;2.53;1.38;;;;;;;29.39;36.98;96919.19;4954430;28;20693;-37
2021/06/11 04:23:49;;;;;;;1.42;1.30;;;;;;;29.38;37.02;96923.63;4952327;28;20023;-35
2021/06/11 04:26:16;;;;;;;1.40;1.30;;;;;;;29.39;37.03;96927.97;4948389;28;20041;-37
2021/06/11 04:28:41;;;;;;;1.17;1.00;;;;;;;29.38;37.21;96928.06;4973357;28;20032;-36
2021/06/11 04:31:07;;;;;;;1.00;1.00;;;;;;;29.39;37.18;96927.97;4948080;28;20058;-39
2021/06/11 04:33:32;;;;;;;0.93;0.90;;;;;;;29.38;37.02;96934.19;4948365;28;20030;-34
2021/06/11 04:35:58;;;;;;;1.20;1.13;;;;;;;29.38;37.08;96928.91;4950587;28;20203;-33
2021/06/11 04:38:24;;;;;;;1.10;1.00;;;;;;;29.38;37.14;96933.34;4944579;28;20034;-38
2021/06/11 04:40:49;;;;;;;1.00;1.00;;;;;;;29.38;37.21;96934.19;4951698;28;20965;-34
2021/06/11 04:43:15;;;;;;;1.25;1.15;;;;;;;29.38;36.93;96923.63;4954209;28;20030;-35
2021/06/11 04:45:40;;;;;;;0.98;0.98;;;;;;;29.38;37.15;96934.19;4960235;28;20073;-36
2021/06/11 04:48:06;;;;;;;1.02;0.85;;;;;;;29.38;37.09;96936.84;4948430;28;20041;-31
2021/06/11 04:50:31;;;;;;;1.88;1.00;;;;;;;29.39;37.23;96941.16;4957965;28;20561;-35
2021/06/11 04:52:57;;;;;;;0.80;0.80;;;;;;;29.38;37.21;96936.84;4953239;28;20023;-36
2021/06/11 04:55:22;;;;;;;1.20;1.10;;;;;;;29.40;37.02;96942.03;4947501;28;20022;-39
2021/06/11 04:57:50;;;;;;;1.50;1.20;;;;;;;29.39;36.99;96946.44;4954065;28;20125;-34
2021/06/11 05:00:15;;;;;;;0.82;0.82;;;;;;;29.39;37.14;96946.44;4952646;28;20031;-40
2021/06/11 05:02:41;;;;;;;0.80;0.80;;;;;;;29.38;37.18;96944.75;4931943;28;20624;-38
2021/06/11 05:05:07;;;;;;;1.27;1.17;;;;;;;29.39;37.18;96941.16;4956196;28;20031;-40
2021/06/11 05:07:32;;;;;;;0.95;0.95;;;;;;;29.39;37.15;96941.16;4978660;28;20682;-39
2021/06/11 05:09:58;;;;;;;1.13;1.08;;;;;;;29.39;36.96;96941.16;4951465;28;20126;-41
2021/06/11 05:12:23;;;;;;;1.30;0.98;;;;;;;29.39;36.94;96941.16;4953984;28;20703;-39
2021/06/11 05:14:48;;;;;;;1.48;1.13;;;;;;;29.40;37.37;96942.84;4954459;28;21535;-37
2021/06/11 05:17:14;;;;;;;1.23;0.77;;;;;;;29.40;37.15;96942.84;4947128;28;20100;-37
2021/06/11 05:19:40;;;;;;;1.02;0.93;;;;;;;29.40;37.06;96942.84;4949282;28;20234;-32
2021/06/11 05:22:06;;;;;;;1.67;1.05;;;;;;;29.40;37.16;96942.84;4951203;28;20034;-33
2021/06/11 05:24:32;;;;;;;0.82;0.82;;;;;;;29.40;36.94;96944.66;4949831;28;20027;-37
2021/06/11 05:26:57;;;;;;;1.33;1.08;;;;;;;29.39;37.12;96941.16;4951128;28;20663;-37
2021/06/11 05:29:23;;;;;;;0.95;0.85;;;;;;;29.40;36.91;96942.84;4953473;28;20047;-36
2021/06/11 05:31:48;;;;;;;1.00;0.68;;;;;;;29.39;37.25;96943.81;4948479;28;20445;-34
2021/06/11 05:34:14;;;;;;;1.17;1.10;;;;;;;29.41;36.94;96949.81;4947601;28;20027;-38
2021/06/11 05:36:39;;;;;;;0.80;0.80;;;;;;;29.40;37.12;96950.75;4954044;28;20080;-31
2021/06/11 05:39:05;;;;;;;1.10;0.90;;;;;;;29.40;37.23;96956.03;4950851;28;21245;-35
2021/06/11 05:41:30;;;;;;;0.90;0.90;;;;;;;29.38;37.06;96944.75;4947180;28;20408;-32
2021/06/11 05:43:55;;;;;;;1.27;1.17;;;;;;;29.41;37.02;96952.44;4957780;28;20031;-41
2021/06/11 05:46:21;;;;;;;0.80;0.80;;;;;;;29.42;37.24;96956.81;4956238;28;20391;-35
2021/06/11 05:48:47;;;;;;;0.88;0.88;;;;;;;29.42;37.23;96953.31;4968220;28;20038;-37
2021/06/11 05:51:13;;;;;;;2.70;1.65;;;;;;;29.42;37.21;96951.53;4938351;28;20114;-37
2021/06/11 05:53:38;;;;;;;7.68;2.05;;;;;;;29.43;37.31;96962.91;4953444;28;20412;-37
2021/06/11 05:56:04;;;;;;;5.25;1.33;;;;;;;29.43;37.30;96953.22;4944720;28;20540;-39
2021/06/11 05:58:30;;;;;;;0.90;0.85;;;;;;;29.44;37.10;96960.19;4940561;28;20113;-37
2021/06/11 06:00:55;;;;;;;3.10;1.20;;;;;;;29.44;37.14;96961.97;4950671;28;20038;-34
2021/06/11 06:03:21;;;;;;;3.75;1.20;;;;;;;29.44;37.28;96954.91;4945788;28;20037;-35
2021/06/11 06:05:46;;;;;;;4.13;1.02;;;;;;;29.45;37.21;96961.88;4946240;28;20045;-34
2021/06/11 06:08:12;;;;;;;4.22;1.40;;;;;;;29.45;37.15;96961.88;4965966;28;20035;-34
2021/06/11 06:10:37;;;;;;;2.72;1.30;;;;;;;29.47;37.02;96960.00;4940084;28;20074;-35
2021/06/11 06:13:03;;;;;;;2.03;1.20;;;;;;;29.47;36.79;96960.00;4950492;28;20037;-33
2021/06/11 06:15:28;;;;;;;1.33;1.20;;;;;;;29.47;36.86;96960.00;4982868;28;20117;-40
2021/06/11 06:17:54;;;;;;;5.47;1.30;;;;;;;29.50;37.05;96968.63;4950016;28;20038;-34
2021/06/11 06:20:19;;;;;;;2.65;1.60;;;;;;;29.50;37.20;96958.06;4945741;28;20037;-37
2021/06/11 06:22:45;;;;;;;4.68;1.67;;;;;;;29.50;37.13;96958.06;4945915;28;20435;-39
2021/06/11 06:25:11;;;;;;;3.50;1.25;;;;;;;29.52;37.10;96956.22;4948539;28;20035;-39
2021/06/11 06:27:37;;;;;;;3.08;1.42;;;;;;;29.52;37.02;96957.06;4964090;28;20070;-36
2021/06/11 06:30:04;;;;;;;2.97;1.75;;;;;;;29.53;37.14;96957.91;4945445;28;20614;-37
2021/06/11 06:32:30;;;;;;;4.78;1.50;;;;;;;29.54;37.14;96956.97;4935878;28;20039;-34
2021/06/11 06:34:57;;;;;;;2.40;1.55;;;;;;;29.54;37.35;96965.75;4943798;28;20157;-39
2021/06/11 06:37:22;;;;;;;4.13;1.75;;;;;;;29.54;37.35;96959.59;4944871;28;20685;-38
2021/06/11 06:39:49;;;;;;;2.75;1.60;;;;;;;29.55;37.35;96961.28;4941992;28;20031;-34
2021/06/11 06:42:14;;;;;;;2.38;1.48;;;;;;;29.55;37.45;96962.16;4945763;28;20875;-40
2021/06/11 06:44:40;;;;;;;1.63;1.20;;;;;;;29.56;37.36;96963.00;4949467;28;20030;-39
2021/06/11 06:47:05;;;;;;;13.82;3.40;;;;;;;29.57;37.15;96957.63;4947109;28;20094;-39
2021/06/11 06:49:34;;;;;;;15.45;3.75;;;;;;;29.56;37.11;96958.56;4948137;28;20131;-42
2021/06/11 06:51:59;;;;;;;15.60;4.78;;;;;;;29.56;36.95;96953.28;4938806;28;20035;-32
2021/06/11 06:54:25;;;;;;;9.65;3.88;;;;;;;29.57;36.77;96959.41;4947895;28;20085;-38
2021/06/11 06:56:50;;;;;;;11.68;5.03;;;;;;;29.56;36.75;96957.72;4947538;28;20278;-36
2021/06/11 06:59:16;;;;;;;29.80;5.55;;;;;;;29.56;36.26;96960.38;4945489;28;20030;-36
2021/06/11 07:01:42;;;;;;;18.80;5.57;;;;;;;29.54;35.92;96959.59;4954650;28;20050;-34
2021/06/11 07:04:07;;;;;;;16.75;6.03;;;;;;;29.48;36.02;96956.41;4950940;28;20040;-38
2021/06/11 07:06:32;;;;;;;8.38;5.63;;;;;;;29.47;35.95;96962.63;4948407;28;20089;-38
2021/06/11 07:08:58;;;;;;;12.40;6.28;;;;;;;29.43;35.65;96958.50;4949125;28;20026;-41
2021/06/11 07:11:25;;;;;;;18.40;5.97;;;;;;;29.40;36.05;96957.88;4947719;28;20059;-34
2021/06/11 07:13:50;;;;;;;21.85;5.80;;;;;;;29.38;36.17;96971.16;4948598;28;20033;-41
2021/06/11 07:16:16;;;;;;;11.82;5.78;;;;;;;29.36;36.26;96967.75;4947392;28;20300;-38
2021/06/11 07:18:41;;;;;;;12.30;5.80;;;;;;;29.34;36.14;96965.22;4951103;28;20037;-33
2021/06/11 07:21:07;;;;;;;9.70;5.50;;;;;;;29.35;36.06;96958.16;4948575;28;20586;-36
2021/06/11 07:23:33;;;;;;;13.52;5.65;;;;;;;29.34;36.21;96959.94;4949498;28;20034;-36
2021/06/11 07:25:59;;;;;;;14.82;6.10;;;;;;;29.36;36.08;96962.47;4955275;28;20035;-40
2021/06/11 07:28:26;;;;;;;14.55;5.85;;;;;;;29.37;36.14;96963.34;4947046;28;20049;-34
2021/06/11 07:30:53;;;;;;;25.15;6.63;;;;;;;29.37;36.41;96960.69;4946284;28;20077;-33
2021/06/11 07:33:19;;;;;;;22.10;7.15;;;;;;;29.38;36.31;96960.59;4948916;28;20039;-38
2021/06/11 07:35:44;;;;;;;13.80;5.85;;;;;;;29.40;36.11;96969.25;4949996;28;20474;-35
2021/06/11 07:38:09;;;;;;;13.85;6.35;;;;;;;29.41;36.21;96962.19;4945829;28;20794;-37
2021/06/11 07:40:35;;;;;;;14.88;6.32;;;;;;;29.42;36.07;96962.09;4946061;28;20655;-37
2021/06/11 07:43:02;;;;;;;19.52;6.40;;;;;;;29.43;35.85;96969.06;4941847;28;20056;-33
2021/06/11 07:45:28;;;;;;;18.60;6.47;;;;;;;29.44;36.15;96962.81;4950261;28;20701;-32
2021/06/11 07:47:53;;;;;;;13.32;6.00;;;;;;;29.47;36.07;96964.41;4948244;28;20034;-32
2021/06/11 07:50:19;;;;;;;16.05;7.15;;;;;;;29.48;36.28;96964.31;4961686;28;20030;-30
2021/06/11 07:52:45;;;;;;;27.67;9.60;;;;;;;29.47;35.94;96965.28;4949377;28;20602;-39
2021/06/11 07:55:12;;;;;;;22.23;7.40;;;;;;;29.46;35.64;96963.59;4944807;28;20086;-34
2021/06/11 07:57:38;;;;;;;12.18;6.97;;;;;;;29.46;35.85;96958.31;4950891;28;20038;-35
2021/06/11 08:00:04;;;;;;;13.93;6.72;;;;;;;29.46;36.02;96963.59;4949634;28;20274;-36
2021/06/11 08:02:29;;;;;;;7.85;5.88;;;;;;;29.46;36.01;96960.94;4950651;28;20050;-35
2021/06/11 08:04:54;;;;;;;13.65;6.00;;;;;;;29.48;35.90;96961.69;4947010;28;20490;-31
2021/06/11 08:07:20;;;;;;;12.80;5.32;;;;;;;29.50;35.98;96958.94;4952484;28;20027;-37
2021/06/11 08:09:45;;;;;;;13.50;6.00;;;;;;;29.52;36.21;96966.78;4947868;28;20030;-37
2021/06/11 08:12:11;;;;;;;10.20;6.10;;;;;;;29.52;36.39;96967.63;4949853;28;20038;-41
2021/06/11 08:14:37;;;;;;;8.85;5.35;;;;;;;29.53;36.52;96963.19;4959677;28;20432;-40
2021/06/11 08:17:02;;;;;;;14.13;5.57;;;;;;;29.53;36.40;96958.78;4949655;28;20581;-38
2021/06/11 08:19:28;;;;;;;10.80;5.70;;;;;;;29.54;36.56;96959.59;4936846;28;20073;-35
2021/06/11 08:21:53;;;;;;;12.55;6.25;;;;;;;29.55;36.27;96961.28;4946596;28;20130;-35
2021/06/11 08:24:19;;;;;;;15.93;5.88;;;;;;;29.58;36.24;96961.09;4940617;28;20035;-39
2021/06/11 08:26:44;;;;;;;10.85;5.53;;;;;;;29.59;36.23;96962.78;4950970;28;20489;-34
2021/06/11 08:29:09;;;;;;;12.65;5.47;;;;;;;29.59;36.39;96968.06;4957309;28;20798;-41
2021/06/11 08:31:35;;;;;;;16.45;5.50;;;;;;;29.60;36.36;96967.13;4955347;28;20046;-41
2021/06/11 08:34:00;;;;;;;14.15;5.07;;;;;;;29.60;36.61;96964.50;4945203;28;20034;-37
2021/06/11 08:36:25;;;;;;;16.55;5.60;;;;;;;29.62;36.83;96964.38;4945784;28;20285;-42
2021/06/11 08:38:51;;;;;;;17.77;5.22;;;;;;;29.62;36.38;96957.31;4944763;28;20073;-39
2021/06/11 08:41:18;;;;;;;11.35;5.30;;;;;;;29.63;36.69;96968.72;4959866;28;20121;-37
2021/06/11 08:43:43;;;;;;;13.00;5.35;;;;;;;29.58;36.62;96956.66;4959501;28;20034;-40
2021/06/11 08:46:09;;;;;;;10.73;5.20;;;;;;;29.64;36.54;96965.13;4956643;28;20046;-39
2021/06/11 08:48:35;;;;;;;7.28;5.03;;;;;;;29.65;36.38;96961.53;4955420;28;20030;-41
2021/06/11 08:51:03;;;;;;;7.65;4.78;;;;;;;29.64;36.64;96955.41;4959620;28;20054;-36
2021/06/11 08:53:29;;;;;;;9.75;4.78;;;;;;;29.65;36.62;96957.09;4981397;28;20520;-41
2021/06/11 08:55:54;;;;;;;10.75;5.05;;;;;;;29.66;36.50;96957.94;4953712;28;20030;-38
2021/06/11 08:58:20;;;;;;;9.98;4.47;;;;;;;29.66;36.60;96964.06;4956044;28;20027;-39
2021/06/11 09:00:45;;;;;;;8.18;4.78;;;;;;;29.67;36.58;96959.66;4955967;28;20039;-37
2021/06/11 09:03:13;;;;;;;9.77;4.72;;;;;;;29.68;36.44;96956.88;4954795;28;20038;-38
2021/06/11 09:05:42;;;;;;;9.57;4.90;;;;;;;29.68;36.65;96956.06;4953293;28;20035;-41
2021/06/11 09:08:14;;;;;;;8.55;4.55;;;;;;;29.68;36.72;96956.88;4951963;28;20173;-37
2021/06/11 09:10:40;;;;;;;7.35;4.70;;;;;;;29.68;36.65;96956.88;4959693;28;20509;-37
2021/06/11 09:13:05;;;;;;;7.18;4.30;;;;;;;29.69;36.92;96963.88;4956875;28;20037;-40
2021/06/11 09:15:31;;;;;;;9.25;4.57;;;;;;;29.69;36.78;96961.25;4950967;28;20337;-38
2021/06/11 09:17:57;;;;;;;7.75;4.30;;;;;;;29.70;36.63;96962.06;4955481;28;20513;-37
2021/06/11 09:20:26;;;;;;;6.47;3.90;;;;;;;29.71;36.75;96967.25;4977545;28;20508;-37
2021/06/11 09:22:52;;;;;;;6.55;4.28;;;;;;;29.71;36.89;96956.69;4953861;28;20034;-39
2021/06/11 09:25:40;;;;;;;9.25;4.20;;;;;;;29.71;36.69;96964.59;4956426;28;20107;-39
2021/06/11 09:28:11;;;;;;;5.22;3.80;;;;;;;29.71;36.90;96961.97;4953339;28;20027;-42
2021/06/11 09:30:36;;;;;;;5.70;4.13;;;;;;;29.72;36.66;96954.91;4943458;28;20125;-37
2021/06/11 09:33:03;;;;;;;6.72;4.03;;;;;;;29.72;36.92;96958.38;4945083;28;20125;-35
2021/06/11 09:35:34;;;;;;;7.18;4.72;;;;;;;29.73;36.58;96952.16;4950565;28;20429;-38
2021/06/11 09:38:20;;;;;;;7.25;4.05;;;;;;;29.73;36.79;96954.81;4946290;28;20073;-38
2021/06/11 09:41:05;;;;;;;7.07;4.15;;;;;;;29.73;36.81;96954.81;4937629;28;20038;-44
2021/06/11 09:43:33;;;;;;;5.00;3.90;;;;;;;29.73;36.78;96949.53;4946428;28;20031;-39
2021/06/11 09:46:10;;;;;;;5.43;3.70;;;;;;;29.74;36.70;96942.44;4949715;28;20457;-39
2021/06/11 09:48:39;;;;;;;5.22;3.97;;;;;;;29.75;36.76;96948.56;4942036;28;20343;-40
2021/06/11 09:51:12;;;;;;;7.90;4.03;;;;;;;29.75;36.66;96945.94;4947705;28;20092;-41
2021/06/11 09:53:38;;;;;;;9.57;4.40;;;;;;;29.76;36.96;96942.31;4945913;28;20030;-34
2021/06/11 09:56:03;;;;;;;5.50;4.15;;;;;;;29.70;37.02;96933.88;4948165;28;20665;-39
2021/06/11 09:58:30;;;;;;;5.43;4.10;;;;;;;29.77;36.79;96949.28;4947202;28;20035;-39
2021/06/11 10:01:22;;;;;;;5.85;4.13;;;;;;;29.77;36.97;96949.28;4938317;28;20046;-40
2021/06/11 10:03:49;;;;;;;7.88;3.65;;;;;;;29.78;37.05;96945.72;4941649;28;20330;-40
2021/06/11 10:06:18;;;;;;;4.88;3.70;;;;;;;29.78;36.82;96945.72;4935485;28;20041;-36
2021/06/11 10:08:45;;;;;;;4.78;4.07;;;;;;;29.79;36.85;96952.69;4947998;28;20034;-39
2021/06/11 10:11:12;;;;;;;4.18;3.78;;;;;;;29.78;36.96;96945.72;4945050;28;20125;-43
2021/06/11 10:13:40;;;;;;;5.57;3.80;;;;;;;29.79;36.87;96942.13;4953059;28;20237;-36
2021/06/11 10:16:07;;;;;;;5.32;3.75;;;;;;;29.80;36.87;96944.66;4945634;28;20020;-35
2021/06/11 10:18:32;;;;;;;4.72;3.90;;;;;;;29.80;37.08;96938.53;4950071;28;20027;-34
2021/06/11 10:20:58;;;;;;;7.18;3.72;;;;;;;29.81;36.75;96941.06;4953050;28;20045;-36
2021/06/11 10:23:24;;;;;;;7.13;3.80;;;;;;;29.81;36.82;96940.22;4936230;28;20038;-38
2021/06/11 10:26:00;;;;;;;5.00;4.05;;;;;;;29.81;36.94;96940.22;4954106;28;20413;-39
2021/06/11 10:28:26;;;;;;;5.57;3.70;;;;;;;29.81;37.05;96940.22;4947719;28;20592;-37
2021/06/11 10:31:14;;;;;;;4.45;3.63;;;;;;;29.82;37.10;96941.91;4952239;28;20038;-42
2021/06/11 10:33:43;;;;;;;3.80;3.40;;;;;;;29.83;37.03;96940.97;4955015;28;20034;-40
2021/06/11 10:38:57;;;;;;;3.78;3.30;;;;;;;29.78;36.91;96930.69;4950316;28;20038;-34
2021/06/11 10:41:23;;;;;;;4.35;3.65;;;;;;;29.85;36.96;96937.28;4954621;28;20478;-42
2021/06/11 10:43:49;;;;;;;4.75;3.55;;;;;;;29.84;37.13;96935.59;4945365;28;20686;-42
2021/06/11 10:46:31;;;;;;;4.57;3.70;;;;;;;29.84;37.08;96930.31;4941622;28;20555;-40
2021/06/11 10:48:56;;;;;;;7.28;3.53;;;;;;;29.85;36.99;96933.78;4954389;28;20130;-36
2021/06/11 10:51:31;;;;;;;4.80;3.80;;;;;;;29.85;37.11;96936.41;4944336;28;20118;-36
2021/06/11 10:54:15;;;;;;;5.20;3.00;;;;;;;29.86;37.19;96935.47;4942949;28;20031;-40
2021/06/11 10:57:12;;;;;;;5.45;3.50;;;;;;;29.87;37.02;96934.53;4945059;28;20039;-39
2021/06/11 10:59:43;;;;;;;3.60;3.20;;;;;;;29.86;37.26;96928.41;4945492;28;20058;-35
2021/06/11 11:02:09;;;;;;;5.95;3.58;;;;;;;29.88;37.43;96933.56;4949457;28;20328;-41
2021/06/11 11:04:35;;;;;;;7.30;3.53;;;;;;;29.88;37.26;96925.66;4941887;28;20533;-40
2021/06/11 11:07:22;;;;;;;3.40;3.10;;;;;;;29.90;37.38;96929.03;4945580;28;20057;-40
2021/06/11 11:09:54;;;;;;;5.25;3.20;;;;;;;29.91;37.70;96920.16;4942299;28;20023;-39
2021/06/11 11:12:20;;;;;;;3.83;2.78;;;;;;;29.91;37.70;96920.16;4941384;28;20583;-37
2021/06/11 11:14:45;;;;;;;3.47;2.90;;;;;;;29.92;37.76;96924.50;4944825;28;20257;-40
2021/06/11 11:17:11;;;;;;;3.95;3.10;;;;;;;29.93;37.60;96912.97;4942977;28;20882;-38
2021/06/11 11:19:47;;;;;;;5.00;2.70;;;;;;;29.93;37.59;96917.41;4941416;28;20030;-38
2021/06/11 11:22:29;;;;;;;5.25;2.95;;;;;;;29.93;37.47;96912.97;4942069;28;20043;-37
2021/06/11 11:24:55;;;;;;;4.32;3.05;;;;;;;29.95;37.70;96911.06;4943649;28;20035;-34
2021/06/11 11:27:20;;;;;;;5.68;3.35;;;;;;;29.97;37.85;96908.31;4941657;28;20070;-39
2021/06/11 11:29:46;;;;;;;4.03;3.13;;;;;;;29.95;37.64;96913.69;4942124;28;20775;-40
2021/06/11 11:32:11;;;;;;;6.78;2.80;;;;;;;29.96;37.62;96907.47;4944573;28;20343;-38
2021/06/11 11:34:36;;;;;;;4.53;2.60;;;;;;;29.98;37.74;96905.56;4942963;28;20035;-41